createdAt,value
2023-05-10T00:00:17.403Z,64.38
2023-05-10T00:02:44.820Z,65.74
2023-05-10T00:05:11.777Z,65.52
2023-05-10T00:07:38.300Z,66.21
2023-05-10T00:10:09.723Z,66.63
2023-05-10T00:12:39.588Z,66.23
2023-05-10T00:15:07.066Z,66.54
2023-05-10T00:17:34.806Z,65.76
2023-05-10T00:20:01.633Z,66.04
2023-05-10T00:22:36.858Z,65.77
2023-05-10T00:25:05.633Z,66.37
2023-05-10T00:27:38.837Z,66.64
2023-05-10T00:30:05.809Z,66.88
2023-05-10T00:32:35.937Z,66.63
2023-05-10T00:35:12.457Z,65.58
2023-05-10T00:37:39.241Z,67.26
2023-05-10T00:40:09.050Z,66.71
2023-05-10T00:42:37.265Z,67.69
2023-05-10T00:45:04.074Z,67.47
2023-05-10T00:47:36.967Z,67.59
2023-05-10T00:50:10.793Z,68.12
2023-05-10T00:52:53.871Z,68.19
2023-05-10T00:55:28.241Z,68.46
2023-05-10T00:57:55.711Z,67.71
2023-05-10T01:00:27.069Z,69.66
2023-05-10T01:02:54.917Z,68.27
2023-05-10T01:05:32.096Z,67.79
2023-05-10T01:08:03.876Z,68.40
2023-05-10T01:10:31.069Z,68.62
2023-05-10T01:12:58.089Z,68.00
2023-05-10T01:15:25.616Z,68.27
2023-05-10T01:17:55.658Z,67.90
2023-05-10T01:20:29.360Z,67.22
2023-05-10T01:23:29.776Z,67.57
2023-05-10T01:26:11.523Z,68.33
2023-05-10T01:28:56.357Z,68.14
2023-05-10T01:31:43.722Z,68.43
2023-05-10T01:34:28.113Z,67.90
2023-05-10T01:37:13.620Z,67.57
2023-05-10T01:39:57.940Z,67.82
2023-05-10T01:42:34.983Z,68.06
2023-05-10T01:45:12.561Z,67.46
2023-05-10T01:47:47.705Z,66.78
2023-05-10T01:50:33.403Z,67.70
2023-05-10T01:53:12.360Z,68.31
2023-05-10T01:56:00.572Z,68.39
2023-05-10T01:58:45.280Z,68.24
2023-05-10T02:01:29.012Z,67.74
2023-05-10T02:04:02.684Z,68.03
2023-05-10T02:06:31.121Z,67.85
2023-05-10T02:08:58.906Z,67.10
2023-05-10T02:11:29.594Z,67.78
2023-05-10T02:13:56.678Z,67.55
2023-05-10T02:16:24.932Z,67.82
2023-05-10T02:18:53.411Z,68.18
2023-05-10T02:21:26.232Z,67.95
2023-05-10T02:23:57.098Z,67.51
2023-05-10T02:26:26.026Z,67.60
2023-05-10T02:28:53.973Z,67.61
2023-05-10T02:31:21.069Z,67.09
2023-05-10T02:33:53.834Z,67.33
2023-05-10T02:36:22.254Z,67.79
2023-05-10T02:38:50.023Z,67.73
2023-05-10T02:41:20.749Z,66.87
2023-05-10T02:43:48.400Z,67.29
2023-05-10T02:46:15.059Z,67.47
2023-05-10T02:48:47.721Z,67.57
2023-05-10T02:51:18.688Z,67.76
2023-05-10T02:53:47.103Z,67.54
2023-05-10T02:56:24.734Z,67.92
2023-05-10T02:58:51.377Z,68.27
2023-05-10T03:01:17.927Z,67.84
2023-05-10T03:03:45.564Z,67.32
2023-05-10T03:06:12.160Z,68.12
2023-05-10T03:08:42.451Z,67.87
2023-05-10T03:11:16.729Z,68.28
2023-05-10T03:13:49.825Z,68.92
2023-05-10T03:16:17.844Z,68.47
2023-05-10T03:19:16.816Z,68.78
2023-05-10T03:21:48.054Z,68.64
2023-05-10T03:24:21.017Z,69.05
2023-05-10T03:26:51.686Z,68.82
2023-05-10T03:29:20.477Z,69.38
2023-05-10T03:31:47.213Z,68.44
2023-05-10T03:34:13.847Z,70.07
2023-05-10T03:36:40.825Z,69.78
2023-05-10T03:39:07.442Z,70.15
2023-05-10T03:41:39.331Z,70.35
2023-05-10T03:44:15.867Z,70.05
2023-05-10T03:46:43.102Z,69.39
2023-05-10T03:49:09.763Z,69.75
2023-05-10T03:51:36.906Z,70.16
2023-05-10T03:54:03.855Z,70.34
2023-05-10T03:56:33.169Z,70.41
2023-05-10T03:59:00.415Z,71.10
2023-05-10T04:01:27.047Z,70.08
2023-05-10T04:03:53.919Z,70.13
2023-05-10T04:06:20.584Z,69.72
2023-05-10T04:08:48.446Z,69.36
2023-05-10T04:11:16.505Z,69.61
2023-05-10T04:13:44.130Z,69.80
2023-05-10T04:16:10.726Z,69.45
2023-05-10T04:18:37.491Z,69.94
2023-05-10T04:21:04.372Z,69.76
2023-05-10T04:23:41.848Z,69.95
2023-05-10T04:26:08.523Z,70.09
2023-05-10T04:28:40.466Z,69.00
2023-05-10T04:31:11.399Z,69.83
2023-05-10T04:33:39.963Z,70.95
2023-05-10T04:36:07.229Z,70.74
2023-05-10T04:38:33.689Z,71.21
2023-05-10T04:41:07.439Z,68.86
2023-05-10T04:43:34.078Z,69.51
2023-05-10T04:46:01.071Z,69.56
2023-05-10T04:48:28.362Z,70.53
2023-05-10T04:50:54.918Z,69.11
2023-05-10T04:53:21.566Z,71.08
2023-05-10T04:55:49.097Z,70.38
2023-05-10T04:58:15.691Z,70.56
2023-05-10T05:00:42.780Z,70.70
2023-05-10T05:03:09.507Z,71.18
2023-05-10T05:05:36.146Z,70.23
2023-05-10T05:08:02.794Z,70.09
2023-05-10T05:10:29.395Z,70.28
2023-05-10T05:12:55.949Z,71.14
2023-05-10T05:15:24.871Z,72.23
2023-05-10T05:17:51.510Z,72.76
2023-05-10T05:20:19.518Z,73.11
2023-05-10T05:22:46.558Z,72.84
2023-05-10T05:25:13.746Z,72.36
2023-05-10T05:27:40.338Z,72.74
2023-05-10T05:30:07.561Z,72.64
2023-05-10T05:32:37.286Z,73.07
2023-05-10T05:35:03.960Z,73.66
2023-05-10T05:37:30.749Z,72.93
2023-05-10T05:39:58.592Z,73.21
2023-05-10T05:42:28.636Z,72.62
2023-05-10T05:44:56.124Z,72.75
2023-05-10T05:47:23.004Z,71.58
2023-05-10T05:49:49.700Z,72.13
2023-05-10T05:52:18.340Z,71.40
2023-05-10T05:54:44.981Z,71.69
2023-05-10T05:57:11.570Z,72.92
2023-05-10T05:59:43.458Z,72.06
2023-05-10T06:02:10.354Z,72.26
2023-05-10T06:04:37.765Z,71.45
2023-05-10T06:07:04.802Z,70.99
2023-05-10T06:09:31.744Z,72.18
2023-05-10T06:11:58.265Z,73.08
2023-05-10T06:14:24.766Z,72.61
2023-05-10T06:16:51.481Z,72.94
2023-05-10T06:19:18.443Z,71.97
2023-05-10T06:21:47.328Z,71.36
2023-05-10T06:24:13.865Z,72.01
2023-05-10T06:26:40.662Z,72.62
2023-05-10T06:29:07.348Z,72.41
2023-05-10T06:31:34.315Z,72.30
2023-05-10T06:34:01.185Z,72.98
2023-05-10T06:36:28.458Z,72.37
2023-05-10T06:38:55.526Z,72.06
2023-05-10T06:41:25.662Z,71.50
2023-05-10T06:43:52.278Z,71.31
2023-05-10T06:46:18.967Z,71.16
2023-05-10T06:48:45.877Z,71.83
2023-05-10T06:51:15.162Z,71.50
2023-05-10T06:53:41.793Z,71.57
2023-05-10T06:56:08.535Z,70.92
2023-05-10T06:58:43.402Z,70.70
2023-05-10T07:01:10.164Z,70.53
2023-05-10T07:03:39.639Z,71.28
2023-05-10T07:06:29.330Z,70.85
2023-05-10T07:09:00.339Z,70.80
2023-05-10T07:11:26.916Z,70.14
2023-05-10T07:13:53.443Z,69.43
2023-05-10T07:16:20.037Z,70.04
2023-05-10T07:18:46.530Z,70.61
2023-05-10T07:21:13.092Z,69.74
2023-05-10T07:23:39.911Z,70.22
2023-05-10T07:26:06.553Z,70.27
2023-05-10T07:28:33.139Z,70.54
2023-05-10T07:30:59.783Z,70.97
2023-05-10T07:33:26.372Z,71.27
2023-05-10T07:35:52.994Z,71.20
2023-05-10T07:38:22.512Z,70.46
2023-05-10T07:40:49.107Z,70.52
2023-05-10T07:43:16.091Z,70.93
2023-05-10T07:45:43.628Z,69.60
2023-05-10T07:48:10.230Z,70.96
2023-05-10T07:50:36.861Z,70.13
2023-05-10T07:53:03.500Z,70.08
2023-05-10T07:55:31.819Z,69.02
2023-05-10T07:57:58.849Z,69.63
2023-05-10T08:00:25.476Z,69.97
2023-05-10T08:02:52.204Z,70.09
2023-05-10T08:05:20.548Z,69.74
2023-05-10T08:07:51.230Z,70.22
2023-05-10T08:10:18.101Z,68.37
2023-05-10T08:12:44.722Z,69.32
2023-05-10T08:15:11.405Z,70.68
2023-05-10T08:17:39.682Z,71.38
2023-05-10T08:20:06.529Z,70.85
2023-05-10T08:22:35.681Z,71.33
2023-05-10T08:25:02.359Z,71.91
2023-05-10T08:27:29.077Z,71.70
2023-05-10T08:29:55.531Z,71.72
2023-05-10T08:32:23.456Z,72.45
2023-05-10T08:34:50.009Z,71.85
2023-05-10T08:37:16.666Z,72.30
2023-05-10T08:39:43.405Z,73.10
2023-05-10T08:42:11.443Z,72.60
2023-05-10T08:44:38.280Z,73.03
2023-05-10T08:47:11.456Z,73.71
2023-05-10T08:49:38.596Z,72.50
2023-05-10T08:52:06.640Z,72.63
2023-05-10T08:54:34.316Z,72.78
2023-05-10T08:57:01.306Z,72.29
2023-05-10T08:59:28.746Z,72.95
2023-05-10T09:01:57.057Z,73.47
2023-05-10T09:04:24.114Z,73.34
2023-05-10T09:06:50.904Z,74.31
2023-05-10T09:09:21.179Z,74.36
2023-05-10T09:11:48.154Z,74.30
2023-05-10T09:14:16.463Z,73.90
2023-05-10T09:16:43.359Z,73.90
2023-05-10T09:19:10.538Z,73.92
2023-05-10T09:21:40.329Z,73.80
2023-05-10T09:24:10.034Z,73.24
2023-05-10T09:26:37.801Z,73.23
2023-05-10T09:29:04.451Z,71.95
2023-05-10T09:31:52.332Z,72.65
2023-05-10T09:34:20.071Z,72.74
2023-05-10T09:36:53.830Z,73.44
2023-05-10T09:39:22.591Z,73.98
2023-05-10T09:41:49.519Z,74.04
2023-05-10T09:44:20.576Z,72.78
2023-05-10T09:46:53.750Z,72.83
2023-05-10T09:49:21.918Z,72.86
2023-05-10T09:51:48.909Z,73.19
2023-05-10T09:54:19.858Z,73.37
2023-05-10T09:56:46.405Z,73.13
2023-05-10T09:59:13.572Z,72.84
2023-05-10T10:01:40.504Z,72.41
2023-05-10T10:04:11.462Z,71.23
2023-05-10T10:06:39.364Z,71.86
2023-05-10T10:09:07.266Z,71.68
2023-05-10T10:11:35.845Z,71.51
2023-05-10T10:14:02.448Z,71.02
2023-05-10T10:16:32.582Z,70.26
2023-05-10T10:19:00.469Z,71.38
2023-05-10T10:21:27.936Z,72.39
2023-05-10T10:23:55.911Z,72.40
2023-05-10T10:26:23.073Z,73.60
2023-05-10T10:28:58.046Z,72.46
2023-05-10T10:31:33.663Z,72.41
2023-05-10T10:34:00.398Z,71.53
2023-05-10T10:36:28.354Z,73.44
2023-05-10T10:39:01.879Z,74.35
2023-05-10T10:41:33.669Z,74.10
2023-05-10T10:44:36.015Z,74.26
2023-05-10T10:47:03.685Z,75.38
2023-05-10T10:49:37.375Z,75.98
2023-05-10T10:52:31.093Z,76.62
2023-05-10T10:55:02.634Z,73.62
2023-05-10T10:57:31.265Z,74.69
2023-05-10T11:00:16.739Z,74.82
2023-05-10T11:02:47.413Z,75.42
2023-05-10T11:05:26.031Z,76.02
2023-05-10T11:07:56.632Z,76.79
2023-05-10T11:10:26.886Z,77.53
2023-05-10T11:13:06.606Z,76.96
2023-05-10T11:15:37.188Z,77.35
2023-05-10T11:18:20.684Z,77.41
2023-05-10T11:21:00.854Z,78.69
2023-05-10T11:23:31.544Z,79.59
2023-05-10T11:25:58.240Z,79.51
2023-05-10T11:28:24.988Z,80.89
2023-05-10T11:30:52.418Z,80.96
2023-05-10T11:33:20.467Z,80.73
2023-05-10T11:35:52.065Z,81.29
2023-05-10T11:38:18.717Z,81.90
2023-05-10T11:40:46.662Z,82.10
2023-05-10T11:43:13.313Z,82.18
2023-05-10T11:45:41.322Z,82.60
2023-05-10T11:48:08.477Z,83.32
2023-05-10T11:50:35.489Z,83.22
2023-05-10T11:53:02.081Z,83.63
2023-05-10T11:55:28.762Z,84.01
2023-05-10T11:58:06.484Z,83.89
2023-05-10T12:00:39.051Z,83.38
2023-05-10T12:03:06.209Z,83.18
2023-05-10T12:05:34.462Z,82.55
2023-05-10T12:08:14.352Z,83.07
2023-05-10T12:10:41.026Z,82.45
2023-05-10T12:13:12.104Z,82.83
2023-05-10T12:15:42.741Z,82.19
2023-05-10T12:18:16.273Z,82.26
2023-05-10T12:20:46.573Z,81.23
2023-05-10T12:23:29.357Z,82.76
2023-05-10T12:26:02.824Z,83.32
2023-05-10T12:28:31.324Z,83.11
2023-05-10T12:30:59.051Z,82.94
2023-05-10T12:33:25.919Z,83.09
2023-05-10T12:35:54.157Z,84.41
2023-05-10T12:39:01.529Z,84.24
2023-05-10T12:41:31.466Z,83.84
2023-05-10T12:43:57.997Z,84.66
2023-05-10T12:46:26.598Z,83.62
2023-05-10T12:49:08.063Z,84.04
2023-05-10T12:51:35.966Z,84.16
2023-05-10T12:54:06.742Z,84.53
2023-05-10T12:56:33.393Z,84.91
2023-05-10T12:59:00.156Z,85.10
2023-05-10T13:01:30.143Z,85.79
2023-05-10T13:04:11.495Z,86.32
2023-05-10T13:06:39.900Z,85.27
2023-05-10T13:09:09.393Z,86.05
2023-05-10T13:11:36.572Z,86.73
2023-05-10T13:14:05.238Z,86.21
2023-05-10T13:16:32.490Z,86.55
2023-05-10T13:19:04.161Z,85.56
2023-05-10T13:21:34.500Z,86.34
2023-05-10T13:24:03.592Z,86.91
2023-05-10T13:26:31.253Z,87.52
2023-05-10T13:28:58.722Z,86.95
2023-05-10T13:31:25.732Z,86.63
2023-05-10T13:34:02.640Z,87.12
2023-05-10T13:36:33.984Z,86.99
2023-05-10T13:39:04.590Z,87.40
2023-05-10T13:41:31.584Z,87.27
2023-05-10T13:43:59.551Z,87.14
2023-05-10T13:46:26.208Z,86.78
2023-05-10T13:48:52.960Z,86.25
2023-05-10T13:51:20.293Z,86.82
2023-05-10T13:53:49.002Z,86.70
2023-05-10T13:56:15.598Z,87.10
2023-05-10T13:58:43.912Z,86.34
2023-05-10T14:01:12.761Z,87.28
2023-05-10T14:03:39.498Z,88.75
2023-05-10T14:06:08.634Z,88.21
2023-05-10T14:08:36.296Z,88.03
2023-05-10T14:11:03.720Z,87.43
2023-05-10T14:13:30.939Z,88.00
2023-05-10T14:15:57.860Z,88.48
2023-05-10T14:18:25.717Z,87.65
2023-05-10T14:20:53.425Z,87.42
2023-05-10T14:23:25.555Z,87.31
2023-05-10T14:25:52.534Z,87.14
2023-05-10T14:28:19.565Z,86.89
2023-05-10T14:30:46.350Z,87.29
2023-05-10T14:33:14.736Z,87.47
2023-05-10T14:35:41.690Z,87.85
2023-05-10T14:38:08.378Z,87.12
2023-05-10T14:40:36.408Z,86.33
2023-05-10T14:43:02.959Z,87.63
2023-05-10T14:45:29.706Z,87.62
2023-05-10T14:47:56.422Z,87.25
2023-05-10T14:50:35.781Z,88.12
2023-05-10T14:53:03.574Z,87.63
2023-05-10T14:55:30.387Z,87.32
2023-05-10T14:57:57.312Z,86.99
2023-05-10T15:00:23.829Z,87.66
2023-05-10T15:02:50.899Z,89.00
2023-05-10T15:05:18.445Z,88.03
2023-05-10T15:07:45.810Z,88.39
2023-05-10T15:10:12.847Z,88.89
2023-05-10T15:12:40.684Z,88.64
2023-05-10T15:15:07.826Z,88.59
2023-05-10T15:17:35.047Z,87.68
2023-05-10T15:20:07.733Z,88.36
2023-05-10T15:22:37.907Z,88.42
2023-05-10T15:25:05.979Z,88.01
2023-05-10T15:27:32.673Z,87.32
2023-05-10T15:30:00.633Z,87.98
2023-05-10T15:32:27.192Z,87.52
2023-05-10T15:34:53.766Z,87.42
2023-05-10T15:37:20.816Z,87.67
2023-05-10T15:39:47.364Z,87.25
2023-05-10T15:42:14.361Z,86.92
2023-05-10T15:44:43.693Z,87.28
2023-05-10T15:47:10.344Z,87.03
2023-05-10T15:49:37.104Z,87.43
2023-05-10T15:52:03.848Z,87.86
2023-05-10T15:54:32.536Z,88.54
2023-05-10T15:57:02.378Z,88.50
2023-05-10T15:59:29.797Z,86.92
2023-05-10T16:01:57.079Z,87.75
2023-05-10T16:04:24.170Z,87.99
2023-05-10T16:06:51.072Z,88.42
2023-05-10T16:09:17.817Z,87.88
2023-05-10T16:11:44.498Z,87.79
2023-05-10T16:14:13.197Z,85.50
2023-05-10T16:16:40.161Z,87.03
2023-05-10T16:19:06.787Z,88.02
2023-05-10T16:21:33.906Z,88.67
2023-05-10T16:24:00.752Z,89.08
2023-05-10T16:26:27.342Z,89.98
2023-05-10T16:28:53.940Z,89.87
2023-05-10T16:31:20.755Z,89.32
2023-05-10T16:33:47.769Z,89.11
2023-05-10T16:36:16.973Z,89.72
2023-05-10T16:38:45.045Z,89.87
2023-05-10T16:41:11.742Z,90.54
2023-05-10T16:43:39.240Z,90.41
2023-05-10T16:46:12.223Z,90.07
2023-05-10T16:48:39.016Z,90.11
2023-05-10T16:51:09.260Z,91.41
2023-05-10T16:53:36.774Z,90.94
2023-05-10T16:56:03.385Z,91.08
2023-05-10T16:58:30.295Z,90.73
2023-05-10T17:03:41.406Z,90.51
2023-05-10T17:06:08.796Z,90.73
2023-05-10T17:08:35.690Z,91.23
2023-05-10T17:11:03.257Z,92.01
2023-05-10T17:13:30.387Z,92.30
2023-05-10T17:15:57.057Z,92.16
2023-05-10T17:18:23.919Z,91.64
2023-05-10T17:20:55.788Z,91.37
2023-05-10T17:23:22.445Z,90.65
2023-05-10T17:25:49.318Z,91.98
2023-05-10T17:28:17.118Z,91.06
2023-05-10T17:30:46.871Z,91.61
2023-05-10T17:33:22.380Z,92.44
2023-05-10T17:35:49.907Z,92.82
2023-05-10T17:38:18.415Z,92.34
2023-05-10T17:40:45.048Z,92.11
2023-05-10T17:43:11.651Z,92.10
2023-05-10T17:45:38.499Z,91.79
2023-05-10T17:48:07.487Z,91.94
2023-05-10T17:50:41.628Z,91.12
2023-05-10T17:53:16.772Z,90.95
2023-05-10T17:55:49.709Z,91.49
2023-05-10T17:58:16.516Z,91.42
2023-05-10T18:00:50.082Z,91.60
2023-05-10T18:03:18.314Z,92.15
2023-05-10T18:05:46.383Z,92.19
2023-05-10T18:08:13.744Z,92.69
2023-05-10T18:10:41.469Z,92.70
2023-05-10T18:13:09.892Z,93.11
2023-05-10T18:15:43.320Z,93.40
2023-05-10T18:18:18.347Z,93.22
2023-05-10T18:20:46.751Z,92.54
2023-05-10T18:23:16.537Z,92.67
2023-05-10T18:25:55.456Z,92.85
2023-05-10T18:28:25.598Z,93.09
2023-05-10T18:30:53.671Z,93.06
2023-05-10T18:33:30.330Z,93.16
2023-05-10T18:36:02.827Z,93.41
2023-05-10T18:38:33.957Z,92.63
2023-05-10T18:41:01.370Z,92.85
2023-05-10T18:43:28.035Z,93.25
2023-05-10T18:45:54.632Z,93.25
2023-05-10T18:48:31.447Z,93.54
2023-05-10T18:51:00.589Z,92.94
2023-05-10T18:53:58.326Z,91.75
2023-05-10T18:56:26.439Z,92.15
2023-05-10T18:59:09.442Z,93.17
2023-05-10T19:01:36.086Z,93.20
2023-05-10T19:04:02.997Z,93.54
2023-05-10T19:06:56.278Z,94.04
2023-05-10T19:09:25.975Z,94.20
2023-05-10T19:12:01.539Z,93.63
2023-05-10T19:14:31.597Z,93.42
2023-05-10T19:17:01.224Z,93.36
2023-05-10T19:19:31.073Z,92.76
2023-05-10T19:22:03.865Z,92.45
2023-05-10T19:24:31.630Z,92.91
2023-05-10T19:27:00.763Z,93.16
2023-05-10T19:29:30.712Z,93.24
2023-05-10T19:32:02.952Z,92.69
2023-05-10T19:34:29.581Z,92.78
2023-05-10T19:37:00.673Z,93.67
2023-05-10T19:39:28.707Z,93.35
2023-05-10T19:42:00.075Z,94.38
2023-05-10T19:44:27.043Z,93.90
2023-05-10T19:47:00.011Z,94.68
2023-05-10T19:49:32.973Z,94.60
2023-05-10T19:52:13.337Z,94.37
2023-05-10T19:54:39.958Z,93.62
2023-05-10T19:57:08.945Z,93.32
2023-05-10T19:59:36.760Z,93.22
2023-05-10T20:02:05.151Z,93.07
2023-05-10T20:04:38.425Z,93.98
2023-05-10T20:07:06.526Z,93.90
2023-05-10T20:09:33.231Z,93.82
2023-05-10T20:12:00.423Z,93.61
2023-05-10T20:14:32.871Z,93.36
2023-05-10T20:17:03.495Z,94.12
2023-05-10T20:19:30.128Z,94.82
2023-05-10T20:22:00.917Z,95.04
2023-05-10T20:24:27.610Z,93.47
2023-05-10T20:26:54.399Z,93.53
2023-05-10T20:29:20.969Z,92.99
2023-05-10T20:31:47.779Z,93.83
2023-05-10T20:34:14.486Z,93.20
2023-05-10T20:36:41.351Z,93.13
2023-05-10T20:39:12.291Z,93.56
2023-05-10T20:42:03.047Z,92.05
2023-05-10T20:44:30.594Z,93.26
2023-05-10T20:46:57.809Z,93.80
2023-05-10T20:49:38.228Z,93.49
2023-05-10T20:52:09.355Z,93.41
2023-05-10T20:54:36.156Z,93.96
2023-05-10T20:57:03.598Z,94.60
2023-05-10T20:59:34.968Z,93.75
2023-05-10T21:02:02.260Z,93.22
2023-05-10T21:04:29.070Z,92.67
2023-05-10T21:06:57.037Z,92.56
2023-05-10T21:09:26.857Z,93.68
2023-05-10T21:11:54.357Z,93.34
2023-05-10T21:14:23.364Z,92.36
2023-05-10T21:16:55.634Z,92.01
2023-05-10T21:19:22.907Z,91.93
2023-05-10T21:21:52.101Z,92.56
2023-05-10T21:24:18.860Z,92.30
2023-05-10T21:26:45.689Z,93.11
2023-05-10T21:31:52.723Z,92.79
2023-05-10T21:34:23.798Z,93.27
2023-05-10T21:36:51.020Z,92.94
2023-05-10T21:39:19.266Z,93.18
2023-05-10T21:41:49.228Z,92.90
2023-05-10T21:44:17.223Z,92.78
2023-05-10T21:46:46.412Z,93.06
2023-05-10T21:49:13.498Z,93.26
2023-05-10T21:51:40.069Z,93.25
2023-05-10T21:54:06.971Z,93.08
2023-05-10T21:56:33.907Z,93.80
2023-05-10T21:59:00.518Z,93.41
2023-05-10T22:01:27.698Z,93.64
2023-05-10T22:03:55.069Z,94.03
2023-05-10T22:06:21.668Z,93.72
2023-05-10T22:08:48.276Z,93.59
2023-05-10T22:11:14.915Z,93.84
2023-05-10T22:13:41.511Z,93.80
2023-05-10T22:16:08.201Z,93.64
2023-05-10T22:18:37.854Z,93.54
2023-05-10T22:21:04.533Z,93.97
2023-05-10T22:23:31.389Z,94.33
2023-05-10T22:26:02.877Z,94.89
2023-05-10T22:28:29.785Z,94.61
2023-05-10T22:30:56.526Z,93.98
2023-05-10T22:33:23.167Z,94.48
2023-05-10T22:35:49.678Z,95.13
2023-05-10T22:38:16.287Z,95.12
2023-05-10T22:40:45.026Z,95.09
2023-05-10T22:43:11.902Z,94.40
2023-05-10T22:45:38.467Z,93.88
2023-05-10T22:48:05.311Z,94.40
2023-05-10T22:50:33.053Z,94.73
2023-05-10T22:52:59.567Z,94.58
2023-05-10T22:55:26.450Z,94.54
2023-05-10T22:57:53.445Z,95.20
2023-05-10T23:00:20.337Z,95.22
2023-05-10T23:02:47.260Z,95.79
2023-05-10T23:05:17.143Z,95.02
2023-05-10T23:07:53.601Z,94.94
2023-05-10T23:10:20.470Z,95.51
2023-05-10T23:12:50.774Z,95.55
2023-05-10T23:15:20.492Z,95.65
2023-05-10T23:17:47.185Z,95.35
2023-05-10T23:20:16.721Z,95.96
2023-05-10T23:22:43.671Z,95.29
2023-05-10T23:25:16.783Z,94.59
2023-05-10T23:27:44.621Z,94.83
2023-05-10T23:30:11.424Z,95.81
2023-05-10T23:32:38.127Z,95.67
2023-05-10T23:35:04.894Z,95.41
2023-05-10T23:37:31.684Z,95.48
2023-05-10T23:40:01.653Z,95.61
2023-05-10T23:42:32.513Z,95.50
2023-05-10T23:44:59.128Z,95.06
2023-05-10T23:47:25.710Z,94.52
2023-05-10T23:49:52.668Z,93.96
2023-05-10T23:52:22.866Z,93.47
2023-05-10T23:54:49.501Z,94.32
2023-05-10T23:57:16.176Z,94.95
2023-05-10T23:59:42.762Z,94.81
